sensor_id;sensor_type;location;lat;lon;timestamp;P1;durP1;ratioP1;P2;durP2;ratioP2
48481;SDS011;34284;48.278;16.378;2023-05-07T00:00:38;269.87;;;131.60;;
48481;SDS011;34284;48.278;16.378;2023-05-07T00:03:05;279.40;;;135.30;;
48481;SDS011;34284;48.278;16.378;2023-05-07T00:05:31;274.37;;;132.70;;
48481;SDS011;34284;48.278;16.378;2023-05-07T00:07:57;272.43;;;132.70;;
48481;SDS011;34284;48.278;16.378;2023-05-07T00:10:23;276.20;;;131.93;;
48481;SDS011;34284;48.278;16.378;2023-05-07T00:12:50;277.13;;;134.57;;
48481;SDS011;34284;48.278;16.378;2023-05-07T00:15:16;278.70;;;131.17;;
48481;SDS011;34284;48.278;16.378;2023-05-07T00:17:42;283.10;;;137.93;;
48481;SDS011;34284;48.278;16.378;2023-05-07T00:20:08;278.83;;;137.63;;
48481;SDS011;34284;48.278;16.378;2023-05-07T00:22:34;273.23;;;133.50;;
48481;SDS011;34284;48.278;16.378;2023-05-07T00:25:00;269.60;;;131.77;;
48481;SDS011;34284;48.278;16.378;2023-05-07T00:27:26;271.27;;;134.47;;
48481;SDS011;34284;48.278;16.378;2023-05-07T00:29:52;277.50;;;136.90;;
48481;SDS011;34284;48.278;16.378;2023-05-07T00:32:18;278.30;;;131.80;;
48481;SDS011;34284;48.278;16.378;2023-05-07T00:34:44;278.23;;;136.90;;
48481;SDS011;34284;48.278;16.378;2023-05-07T00:37:10;286.80;;;134.80;;
48481;SDS011;34284;48.278;16.378;2023-05-07T00:39:37;288.90;;;137.43;;
48481;SDS011;34284;48.278;16.378;2023-05-07T00:42:03;274.70;;;135.40;;
48481;SDS011;34284;48.278;16.378;2023-05-07T00:44:29;268.83;;;133.37;;
48481;SDS011;34284;48.278;16.378;2023-05-07T00:46:55;277.20;;;134.13;;
48481;SDS011;34284;48.278;16.378;2023-05-07T00:49:23;275.10;;;133.53;;
48481;SDS011;34284;48.278;16.378;2023-05-07T00:51:50;277.57;;;132.10;;
48481;SDS011;34284;48.278;16.378;2023-05-07T00:54:16;288.23;;;137.00;;
48481;SDS011;34284;48.278;16.378;2023-05-07T00:56:42;286.27;;;133.43;;
48481;SDS011;34284;48.278;16.378;2023-05-07T00:59:08;278.77;;;136.37;;
48481;SDS011;34284;48.278;16.378;2023-05-07T01:01:34;281.27;;;133.33;;
48481;SDS011;34284;48.278;16.378;2023-05-07T01:04:01;282.43;;;135.10;;
48481;SDS011;34284;48.278;16.378;2023-05-07T01:06:27;279.77;;;134.77;;
48481;SDS011;34284;48.278;16.378;2023-05-07T01:08:55;282.17;;;133.13;;
48481;SDS011;34284;48.278;16.378;2023-05-07T01:11:22;290.50;;;133.70;;
48481;SDS011;34284;48.278;16.378;2023-05-07T01:13:48;273.33;;;131.57;;
48481;SDS011;34284;48.278;16.378;2023-05-07T01:16:15;274.70;;;129.60;;
48481;SDS011;34284;48.278;16.378;2023-05-07T01:18:41;276.07;;;130.73;;
48481;SDS011;34284;48.278;16.378;2023-05-07T01:21:07;281.73;;;132.17;;
48481;SDS011;34284;48.278;16.378;2023-05-07T01:23:37;281.53;;;134.57;;
48481;SDS011;34284;48.278;16.378;2023-05-07T01:26:03;270.43;;;129.57;;
48481;SDS011;34284;48.278;16.378;2023-05-07T01:28:30;276.37;;;132.23;;
48481;SDS011;34284;48.278;16.378;2023-05-07T01:30:58;271.37;;;131.07;;
48481;SDS011;34284;48.278;16.378;2023-05-07T01:33:26;271.17;;;127.33;;
48481;SDS011;34284;48.278;16.378;2023-05-07T01:35:53;268.57;;;131.77;;
48481;SDS011;34284;48.278;16.378;2023-05-07T01:38:20;271.37;;;131.43;;
48481;SDS011;34284;48.278;16.378;2023-05-07T01:40:47;273.57;;;133.73;;
48481;SDS011;34284;48.278;16.378;2023-05-07T01:43:13;276.27;;;131.67;;
48481;SDS011;34284;48.278;16.378;2023-05-07T01:45:40;273.57;;;127.37;;
48481;SDS011;34284;48.278;16.378;2023-05-07T01:48:07;273.17;;;127.57;;
48481;SDS011;34284;48.278;16.378;2023-05-07T01:50:34;278.43;;;128.57;;
48481;SDS011;34284;48.278;16.378;2023-05-07T01:53:01;270.43;;;129.13;;
48481;SDS011;34284;48.278;16.378;2023-05-07T01:55:27;265.47;;;129.10;;
48481;SDS011;34284;48.278;16.378;2023-05-07T01:57:53;272.63;;;128.77;;
48481;SDS011;34284;48.278;16.378;2023-05-07T02:00:19;271.43;;;129.73;;
48481;SDS011;34284;48.278;16.378;2023-05-07T02:02:45;282.43;;;130.67;;
48481;SDS011;34284;48.278;16.378;2023-05-07T02:05:11;268.23;;;129.30;;
48481;SDS011;34284;48.278;16.378;2023-05-07T02:07:37;280.87;;;127.30;;
48481;SDS011;34284;48.278;16.378;2023-05-07T02:10:03;277.47;;;133.00;;
48481;SDS011;34284;48.278;16.378;2023-05-07T02:12:30;275.63;;;132.93;;
48481;SDS011;34284;48.278;16.378;2023-05-07T02:14:56;276.73;;;134.40;;
48481;SDS011;34284;48.278;16.378;2023-05-07T02:17:22;275.03;;;133.07;;
48481;SDS011;34284;48.278;16.378;2023-05-07T02:19:48;287.83;;;133.57;;
48481;SDS011;34284;48.278;16.378;2023-05-07T02:22:14;279.13;;;130.57;;
48481;SDS011;34284;48.278;16.378;2023-05-07T02:24:40;271.73;;;131.57;;
48481;SDS011;34284;48.278;16.378;2023-05-07T02:27:06;281.13;;;131.33;;
48481;SDS011;34284;48.278;16.378;2023-05-07T02:29:32;271.57;;;131.60;;
48481;SDS011;34284;48.278;16.378;2023-05-07T02:31:58;284.07;;;131.97;;
48481;SDS011;34284;48.278;16.378;2023-05-07T02:34:24;266.27;;;128.07;;
48481;SDS011;34284;48.278;16.378;2023-05-07T02:36:50;270.53;;;129.53;;
48481;SDS011;34284;48.278;16.378;2023-05-07T02:39:16;288.37;;;137.73;;
48481;SDS011;34284;48.278;16.378;2023-05-07T02:41:42;289.47;;;158.00;;
48481;SDS011;34284;48.278;16.378;2023-05-07T02:44:08;279.27;;;154.00;;
48481;SDS011;34284;48.278;16.378;2023-05-07T02:46:34;285.30;;;155.10;;
48481;SDS011;34284;48.278;16.378;2023-05-07T02:49:00;286.30;;;151.17;;
48481;SDS011;34284;48.278;16.378;2023-05-07T02:51:26;298.80;;;160.13;;
48481;SDS011;34284;48.278;16.378;2023-05-07T02:53:52;291.40;;;156.37;;
48481;SDS011;34284;48.278;16.378;2023-05-07T02:56:18;289.70;;;160.07;;
48481;SDS011;34284;48.278;16.378;2023-05-07T02:58:44;289.03;;;155.37;;
48481;SDS011;34284;48.278;16.378;2023-05-07T03:01:10;290.30;;;153.03;;
48481;SDS011;34284;48.278;16.378;2023-05-07T03:03:38;282.17;;;150.83;;
48481;SDS011;34284;48.278;16.378;2023-05-07T03:06:05;287.10;;;154.73;;
48481;SDS011;34284;48.278;16.378;2023-05-07T03:08:31;296.53;;;156.77;;
48481;SDS011;34284;48.278;16.378;2023-05-07T03:10:57;292.07;;;150.07;;
48481;SDS011;34284;48.278;16.378;2023-05-07T03:13:23;306.13;;;162.23;;
48481;SDS011;34284;48.278;16.378;2023-05-07T03:15:49;299.53;;;154.30;;
48481;SDS011;34284;48.278;16.378;2023-05-07T03:18:15;298.17;;;157.50;;
48481;SDS011;34284;48.278;16.378;2023-05-07T03:20:41;294.47;;;153.67;;
48481;SDS011;34284;48.278;16.378;2023-05-07T03:23:07;296.57;;;153.57;;
48481;SDS011;34284;48.278;16.378;2023-05-07T03:25:33;286.33;;;149.53;;
48481;SDS011;34284;48.278;16.378;2023-05-07T03:28:00;292.80;;;147.03;;
48481;SDS011;34284;48.278;16.378;2023-05-07T03:30:26;286.97;;;142.97;;
48481;SDS011;34284;48.278;16.378;2023-05-07T03:32:52;297.40;;;152.73;;
48481;SDS011;34284;48.278;16.378;2023-05-07T03:35:18;300.43;;;155.77;;
48481;SDS011;34284;48.278;16.378;2023-05-07T03:37:44;288.43;;;152.00;;
48481;SDS011;34284;48.278;16.378;2023-05-07T03:40:10;281.47;;;151.47;;
48481;SDS011;34284;48.278;16.378;2023-05-07T03:42:37;286.97;;;147.37;;
48481;SDS011;34284;48.278;16.378;2023-05-07T03:45:03;291.17;;;155.70;;
48481;SDS011;34284;48.278;16.378;2023-05-07T03:47:29;293.37;;;154.93;;
48481;SDS011;34284;48.278;16.378;2023-05-07T03:49:55;294.70;;;153.83;;
48481;SDS011;34284;48.278;16.378;2023-05-07T03:52:21;300.10;;;154.13;;
48481;SDS011;34284;48.278;16.378;2023-05-07T03:54:51;293.53;;;153.57;;
48481;SDS011;34284;48.278;16.378;2023-05-07T03:57:17;299.93;;;154.43;;
48481;SDS011;34284;48.278;16.378;2023-05-07T03:59:43;286.60;;;154.83;;
48481;SDS011;34284;48.278;16.378;2023-05-07T04:02:08;291.63;;;163.63;;
48481;SDS011;34284;48.278;16.378;2023-05-07T04:04:35;284.53;;;159.13;;
48481;SDS011;34284;48.278;16.378;2023-05-07T04:07:01;288.40;;;164.20;;
48481;SDS011;34284;48.278;16.378;2023-05-07T04:09:26;294.87;;;158.90;;
48481;SDS011;34284;48.278;16.378;2023-05-07T04:11:52;287.23;;;155.63;;
48481;SDS011;34284;48.278;16.378;2023-05-07T04:14:18;283.27;;;153.10;;
48481;SDS011;34284;48.278;16.378;2023-05-07T04:16:45;292.13;;;152.73;;
48481;SDS011;34284;48.278;16.378;2023-05-07T04:19:11;279.83;;;142.03;;
48481;SDS011;34284;48.278;16.378;2023-05-07T04:21:37;289.53;;;150.33;;
48481;SDS011;34284;48.278;16.378;2023-05-07T04:24:03;280.30;;;145.40;;
48481;SDS011;34284;48.278;16.378;2023-05-07T04:26:29;299.20;;;156.80;;
48481;SDS011;34284;48.278;16.378;2023-05-07T04:28:56;290.63;;;154.67;;
48481;SDS011;34284;48.278;16.378;2023-05-07T04:31:24;294.07;;;157.73;;
48481;SDS011;34284;48.278;16.378;2023-05-07T04:33:50;308.10;;;158.13;;
48481;SDS011;34284;48.278;16.378;2023-05-07T04:36:16;287.70;;;150.13;;
48481;SDS011;34284;48.278;16.378;2023-05-07T04:38:42;287.70;;;149.63;;
48481;SDS011;34284;48.278;16.378;2023-05-07T04:41:08;288.93;;;151.73;;
48481;SDS011;34284;48.278;16.378;2023-05-07T04:43:34;290.43;;;152.60;;
48481;SDS011;34284;48.278;16.378;2023-05-07T04:46:00;291.00;;;154.00;;
48481;SDS011;34284;48.278;16.378;2023-05-07T04:48:26;300.60;;;149.30;;
48481;SDS011;34284;48.278;16.378;2023-05-07T04:50:53;310.80;;;139.67;;
48481;SDS011;34284;48.278;16.378;2023-05-07T04:53:20;304.20;;;147.17;;
48481;SDS011;34284;48.278;16.378;2023-05-07T04:55:46;311.90;;;150.77;;
48481;SDS011;34284;48.278;16.378;2023-05-07T04:58:12;304.93;;;151.00;;
48481;SDS011;34284;48.278;16.378;2023-05-07T05:00:39;294.97;;;141.50;;
48481;SDS011;34284;48.278;16.378;2023-05-07T05:03:08;304.67;;;149.27;;
48481;SDS011;34284;48.278;16.378;2023-05-07T05:05:34;308.57;;;148.30;;
48481;SDS011;34284;48.278;16.378;2023-05-07T05:08:00;313.40;;;150.70;;
48481;SDS011;34284;48.278;16.378;2023-05-07T05:10:26;306.50;;;146.87;;
48481;SDS011;34284;48.278;16.378;2023-05-07T05:12:52;307.70;;;149.47;;
48481;SDS011;34284;48.278;16.378;2023-05-07T05:15:18;317.53;;;157.53;;
48481;SDS011;34284;48.278;16.378;2023-05-07T05:17:45;308.20;;;148.63;;
48481;SDS011;34284;48.278;16.378;2023-05-07T05:20:11;313.67;;;153.73;;
48481;SDS011;34284;48.278;16.378;2023-05-07T05:22:37;324.27;;;155.33;;
48481;SDS011;34284;48.278;16.378;2023-05-07T05:25:03;316.30;;;153.57;;
48481;SDS011;34284;48.278;16.378;2023-05-07T05:27:29;319.90;;;157.20;;
48481;SDS011;34284;48.278;16.378;2023-05-07T05:29:55;322.87;;;160.90;;
48481;SDS011;34284;48.278;16.378;2023-05-07T05:32:21;316.10;;;155.63;;
48481;SDS011;34284;48.278;16.378;2023-05-07T05:34:47;316.37;;;158.43;;
48481;SDS011;34284;48.278;16.378;2023-05-07T05:37:13;330.83;;;167.20;;
48481;SDS011;34284;48.278;16.378;2023-05-07T05:39:40;322.13;;;155.83;;
48481;SDS011;34284;48.278;16.378;2023-05-07T05:42:06;327.17;;;158.17;;
48481;SDS011;34284;48.278;16.378;2023-05-07T05:44:32;338.43;;;159.53;;
48481;SDS011;34284;48.278;16.378;2023-05-07T05:46:58;330.07;;;162.33;;
48481;SDS011;34284;48.278;16.378;2023-05-07T05:49:24;332.53;;;163.27;;
48481;SDS011;34284;48.278;16.378;2023-05-07T05:51:50;322.03;;;165.07;;
48481;SDS011;34284;48.278;16.378;2023-05-07T05:54:16;324.03;;;172.30;;
48481;SDS011;34284;48.278;16.378;2023-05-07T05:56:42;318.65;;;165.18;;
48481;SDS011;34284;48.278;16.378;2023-05-07T05:59:09;313.87;;;169.43;;
48481;SDS011;34284;48.278;16.378;2023-05-07T06:01:35;330.73;;;157.70;;
48481;SDS011;34284;48.278;16.378;2023-05-07T06:04:01;341.33;;;163.95;;
48481;SDS011;34284;48.278;16.378;2023-05-07T06:06:27;352.80;;;170.57;;
48481;SDS011;34284;48.278;16.378;2023-05-07T06:08:53;355.58;;;163.48;;
48481;SDS011;34284;48.278;16.378;2023-05-07T06:11:19;348.20;;;166.30;;
48481;SDS011;34284;48.278;16.378;2023-05-07T06:13:46;348.77;;;164.43;;
48481;SDS011;34284;48.278;16.378;2023-05-07T06:16:13;349.15;;;171.70;;
48481;SDS011;34284;48.278;16.378;2023-05-07T06:18:40;340.75;;;161.15;;
48481;SDS011;34284;48.278;16.378;2023-05-07T06:21:06;348.48;;;168.00;;
48481;SDS011;34284;48.278;16.378;2023-05-07T06:23:32;355.20;;;174.75;;
48481;SDS011;34284;48.278;16.378;2023-05-07T06:25:58;344.48;;;172.18;;
48481;SDS011;34284;48.278;16.378;2023-05-07T06:28:24;349.48;;;176.70;;
48481;SDS011;34284;48.278;16.378;2023-05-07T06:30:50;350.90;;;174.40;;
48481;SDS011;34284;48.278;16.378;2023-05-07T06:33:16;358.45;;;182.25;;
48481;SDS011;34284;48.278;16.378;2023-05-07T06:35:42;353.17;;;174.90;;
48481;SDS011;34284;48.278;16.378;2023-05-07T06:38:08;357.38;;;178.25;;
48481;SDS011;34284;48.278;16.378;2023-05-07T06:40:34;363.70;;;182.75;;
48481;SDS011;34284;48.278;16.378;2023-05-07T06:43:00;364.23;;;188.07;;
48481;SDS011;34284;48.278;16.378;2023-05-07T06:45:26;361.35;;;187.25;;
48481;SDS011;34284;48.278;16.378;2023-05-07T06:47:52;359.80;;;186.60;;
48481;SDS011;34284;48.278;16.378;2023-05-07T06:50:18;359.38;;;190.18;;
48481;SDS011;34284;48.278;16.378;2023-05-07T06:52:44;361.65;;;184.15;;
48481;SDS011;34284;48.278;16.378;2023-05-07T06:55:10;368.08;;;188.57;;
48481;SDS011;34284;48.278;16.378;2023-05-07T06:57:37;363.35;;;180.50;;
48481;SDS011;34284;48.278;16.378;2023-05-07T07:00:03;366.40;;;188.20;;
48481;SDS011;34284;48.278;16.378;2023-05-07T07:02:31;369.98;;;182.18;;
48481;SDS011;34284;48.278;16.378;2023-05-07T07:04:57;355.08;;;177.88;;
48481;SDS011;34284;48.278;16.378;2023-05-07T07:07:23;355.85;;;183.07;;
48481;SDS011;34284;48.278;16.378;2023-05-07T07:09:49;355.58;;;179.20;;
48481;SDS011;34284;48.278;16.378;2023-05-07T07:12:16;356.33;;;175.10;;
48481;SDS011;34284;48.278;16.378;2023-05-07T07:14:42;351.15;;;171.73;;
48481;SDS011;34284;48.278;16.378;2023-05-07T07:17:08;359.45;;;173.25;;
48481;SDS011;34284;48.278;16.378;2023-05-07T07:19:35;359.10;;;172.82;;
48481;SDS011;34284;48.278;16.378;2023-05-07T07:22:01;355.60;;;173.75;;
48481;SDS011;34284;48.278;16.378;2023-05-07T07:24:27;352.52;;;172.15;;
48481;SDS011;34284;48.278;16.378;2023-05-07T07:26:53;348.38;;;165.98;;
48481;SDS011;34284;48.278;16.378;2023-05-07T07:29:20;379.40;;;245.95;;
48481;SDS011;34284;48.278;16.378;2023-05-07T07:31:47;379.13;;;248.95;;
48481;SDS011;34284;48.278;16.378;2023-05-07T07:34:14;374.95;;;239.23;;
48481;SDS011;34284;48.278;16.378;2023-05-07T07:36:40;375.83;;;232.80;;
48481;SDS011;34284;48.278;16.378;2023-05-07T07:39:06;348.25;;;164.15;;
48481;SDS011;34284;48.278;16.378;2023-05-07T07:41:32;353.02;;;167.63;;
48481;SDS011;34284;48.278;16.378;2023-05-07T07:43:58;354.27;;;171.48;;
48481;SDS011;34284;48.278;16.378;2023-05-07T07:46:24;357.67;;;167.32;;
48481;SDS011;34284;48.278;16.378;2023-05-07T07:48:51;354.13;;;173.45;;
48481;SDS011;34284;48.278;16.378;2023-05-07T07:51:17;364.98;;;175.50;;
48481;SDS011;34284;48.278;16.378;2023-05-07T07:53:43;362.10;;;184.43;;
48481;SDS011;34284;48.278;16.378;2023-05-07T07:56:09;359.92;;;179.02;;
48481;SDS011;34284;48.278;16.378;2023-05-07T07:58:35;406.30;;;265.90;;
48481;SDS011;34284;48.278;16.378;2023-05-07T08:01:02;360.50;;;179.93;;
48481;SDS011;34284;48.278;16.378;2023-05-07T08:03:28;373.05;;;180.98;;
48481;SDS011;34284;48.278;16.378;2023-05-07T08:05:57;368.95;;;187.60;;
48481;SDS011;34284;48.278;16.378;2023-05-07T08:08:23;358.67;;;181.73;;
48481;SDS011;34284;48.278;16.378;2023-05-07T08:10:49;352.40;;;172.38;;
48481;SDS011;34284;48.278;16.378;2023-05-07T08:13:15;364.67;;;190.70;;
48481;SDS011;34284;48.278;16.378;2023-05-07T08:15:41;356.02;;;179.88;;
48481;SDS011;34284;48.278;16.378;2023-05-07T08:18:07;332.10;;;167.27;;
48481;SDS011;34284;48.278;16.378;2023-05-07T08:20:33;342.88;;;151.20;;
48481;SDS011;34284;48.278;16.378;2023-05-07T08:23:04;319.58;;;156.07;;
48481;SDS011;34284;48.278;16.378;2023-05-07T08:25:32;323.17;;;161.50;;
48481;SDS011;34284;48.278;16.378;2023-05-07T08:27:58;359.08;;;182.27;;
48481;SDS011;34284;48.278;16.378;2023-05-07T08:30:24;353.38;;;176.27;;
48481;SDS011;34284;48.278;16.378;2023-05-07T08:32:51;324.02;;;178.20;;
48481;SDS011;34284;48.278;16.378;2023-05-07T08:35:17;322.10;;;178.77;;
48481;SDS011;34284;48.278;16.378;2023-05-07T08:37:43;333.60;;;186.10;;
48481;SDS011;34284;48.278;16.378;2023-05-07T08:40:09;338.73;;;193.32;;
48481;SDS011;34284;48.278;16.378;2023-05-07T08:42:35;335.08;;;189.70;;
48481;SDS011;34284;48.278;16.378;2023-05-07T08:45:03;332.42;;;188.25;;
48481;SDS011;34284;48.278;16.378;2023-05-07T08:47:55;349.98;;;208.27;;
48481;SDS011;34284;48.278;16.378;2023-05-07T08:50:20;333.67;;;198.48;;
48481;SDS011;34284;48.278;16.378;2023-05-07T08:52:46;348.92;;;224.65;;
48481;SDS011;34284;48.278;16.378;2023-05-07T08:55:12;353.80;;;219.55;;
48481;SDS011;34284;48.278;16.378;2023-05-07T08:57:38;345.80;;;216.90;;
48481;SDS011;34284;48.278;16.378;2023-05-07T09:00:05;350.27;;;225.50;;
48481;SDS011;34284;48.278;16.378;2023-05-07T09:02:32;346.73;;;207.02;;
48481;SDS011;34284;48.278;16.378;2023-05-07T09:04:58;357.30;;;243.68;;
48481;SDS011;34284;48.278;16.378;2023-05-07T09:07:24;362.80;;;247.90;;
48481;SDS011;34284;48.278;16.378;2023-05-07T09:09:51;367.92;;;260.23;;
48481;SDS011;34284;48.278;16.378;2023-05-07T09:12:20;361.17;;;250.27;;
48481;SDS011;34284;48.278;16.378;2023-05-07T09:14:46;356.27;;;248.93;;
48481;SDS011;34284;48.278;16.378;2023-05-07T09:17:13;354.65;;;249.55;;
48481;SDS011;34284;48.278;16.378;2023-05-07T09:19:39;363.73;;;247.65;;
48481;SDS011;34284;48.278;16.378;2023-05-07T09:22:05;361.02;;;247.40;;
48481;SDS011;34284;48.278;16.378;2023-05-07T09:24:34;360.73;;;244.63;;
48481;SDS011;34284;48.278;16.378;2023-05-07T09:27:03;365.42;;;254.90;;
48481;SDS011;34284;48.278;16.378;2023-05-07T09:29:29;363.40;;;259.20;;
48481;SDS011;34284;48.278;16.378;2023-05-07T09:32:00;372.38;;;261.23;;
48481;SDS011;34284;48.278;16.378;2023-05-07T09:34:26;363.00;;;256.70;;
48481;SDS011;34284;48.278;16.378;2023-05-07T09:36:52;371.08;;;245.43;;
48481;SDS011;34284;48.278;16.378;2023-05-07T09:39:19;334.52;;;206.13;;
48481;SDS011;34284;48.278;16.378;2023-05-07T09:41:45;357.85;;;214.38;;
48481;SDS011;34284;48.278;16.378;2023-05-07T09:44:12;406.25;;;269.20;;
48481;SDS011;34284;48.278;16.378;2023-05-07T09:46:38;400.08;;;253.32;;
48481;SDS011;34284;48.278;16.378;2023-05-07T09:49:04;389.02;;;228.98;;
48481;SDS011;34284;48.278;16.378;2023-05-07T09:51:39;395.73;;;244.85;;
48481;SDS011;34284;48.278;16.378;2023-05-07T09:54:07;393.65;;;242.68;;
48481;SDS011;34284;48.278;16.378;2023-05-07T09:56:33;397.30;;;252.75;;
48481;SDS011;34284;48.278;16.378;2023-05-07T09:59:00;407.60;;;293.45;;
48481;SDS011;34284;48.278;16.378;2023-05-07T10:01:27;396.40;;;273.02;;
48481;SDS011;34284;48.278;16.378;2023-05-07T10:03:53;401.08;;;265.50;;
48481;SDS011;34284;48.278;16.378;2023-05-07T10:06:23;390.65;;;267.42;;
48481;SDS011;34284;48.278;16.378;2023-05-07T10:08:50;408.95;;;276.67;;
48481;SDS011;34284;48.278;16.378;2023-05-07T10:11:17;396.90;;;269.27;;
48481;SDS011;34284;48.278;16.378;2023-05-07T10:13:43;401.80;;;264.40;;
48481;SDS011;34284;48.278;16.378;2023-05-07T10:16:11;398.05;;;253.27;;
48481;SDS011;34284;48.278;16.378;2023-05-07T10:18:38;406.23;;;257.02;;
48481;SDS011;34284;48.278;16.378;2023-05-07T10:21:07;415.02;;;264.60;;
48481;SDS011;34284;48.278;16.378;2023-05-07T10:23:33;412.77;;;258.48;;
48481;SDS011;34284;48.278;16.378;2023-05-07T10:26:00;402.25;;;253.68;;
48481;SDS011;34284;48.278;16.378;2023-05-07T10:28:28;389.55;;;234.00;;
48481;SDS011;34284;48.278;16.378;2023-05-07T10:33:39;391.13;;;222.07;;
48481;SDS011;34284;48.278;16.378;2023-05-07T10:36:06;404.63;;;273.75;;
48481;SDS011;34284;48.278;16.378;2023-05-07T10:38:33;385.08;;;226.95;;
48481;SDS011;34284;48.278;16.378;2023-05-07T10:41:00;416.65;;;248.48;;
48481;SDS011;34284;48.278;16.378;2023-05-07T10:43:38;389.77;;;236.18;;
48481;SDS011;34284;48.278;16.378;2023-05-07T10:46:15;420.40;;;260.90;;
48481;SDS011;34284;48.278;16.378;2023-05-07T10:51:25;388.02;;;227.98;;
48481;SDS011;34284;48.278;16.378;2023-05-07T10:54:18;373.75;;;213.88;;
48481;SDS011;34284;48.278;16.378;2023-05-07T10:56:38;382.80;;;218.13;;
48481;SDS011;34284;48.278;16.378;2023-05-07T11:01:49;404.13;;;239.18;;
48481;SDS011;34284;48.278;16.378;2023-05-07T11:04:16;407.73;;;238.23;;
48481;SDS011;34284;48.278;16.378;2023-05-07T11:15:08;392.27;;;239.25;;
48481;SDS011;34284;48.278;16.378;2023-05-07T11:17:35;391.60;;;245.27;;
48481;SDS011;34284;48.278;16.378;2023-05-07T11:20:17;401.20;;;267.98;;
48481;SDS011;34284;48.278;16.378;2023-05-07T11:22:43;406.75;;;272.95;;
48481;SDS011;34284;48.278;16.378;2023-05-07T11:25:09;398.17;;;268.02;;
48481;SDS011;34284;48.278;16.378;2023-05-07T11:27:35;393.38;;;261.63;;
48481;SDS011;34284;48.278;16.378;2023-05-07T11:30:02;397.92;;;265.90;;
48481;SDS011;34284;48.278;16.378;2023-05-07T11:32:28;391.55;;;263.00;;
48481;SDS011;34284;48.278;16.378;2023-05-07T11:34:55;414.70;;;290.17;;
48481;SDS011;34284;48.278;16.378;2023-05-07T11:37:22;405.10;;;283.52;;
48481;SDS011;34284;48.278;16.378;2023-05-07T11:39:48;420.52;;;319.55;;
48481;SDS011;34284;48.278;16.378;2023-05-07T11:42:32;417.38;;;301.00;;
48481;SDS011;34284;48.278;16.378;2023-05-07T11:44:59;427.23;;;292.58;;
48481;SDS011;34284;48.278;16.378;2023-05-07T11:47:25;418.85;;;307.55;;
48481;SDS011;34284;48.278;16.378;2023-05-07T11:49:52;414.88;;;309.83;;
48481;SDS011;34284;48.278;16.378;2023-05-07T11:52:18;406.30;;;302.88;;
48481;SDS011;34284;48.278;16.378;2023-05-07T11:55:03;420.15;;;307.17;;
48481;SDS011;34284;48.278;16.378;2023-05-07T11:57:29;412.13;;;306.95;;
48481;SDS011;34284;48.278;16.378;2023-05-07T11:59:56;407.73;;;308.65;;
48481;SDS011;34284;48.278;16.378;2023-05-07T12:02:22;408.42;;;293.23;;
48481;SDS011;34284;48.278;16.378;2023-05-07T12:04:50;411.88;;;302.80;;
48481;SDS011;34284;48.278;16.378;2023-05-07T12:07:16;412.23;;;291.17;;
48481;SDS011;34284;48.278;16.378;2023-05-07T12:09:43;407.77;;;280.58;;
48481;SDS011;34284;48.278;16.378;2023-05-07T12:12:09;412.25;;;280.95;;
48481;SDS011;34284;48.278;16.378;2023-05-07T12:14:42;414.70;;;273.80;;
48481;SDS011;34284;48.278;16.378;2023-05-07T12:17:08;406.60;;;276.55;;
48481;SDS011;34284;48.278;16.378;2023-05-07T12:19:35;400.75;;;268.75;;
48481;SDS011;34284;48.278;16.378;2023-05-07T12:22:04;404.55;;;273.48;;
48481;SDS011;34284;48.278;16.378;2023-05-07T12:27:09;411.67;;;263.10;;
48481;SDS011;34284;48.278;16.378;2023-05-07T12:29:35;401.65;;;256.15;;
48481;SDS011;34284;48.278;16.378;2023-05-07T12:32:04;401.60;;;256.48;;
48481;SDS011;34284;48.278;16.378;2023-05-07T12:34:31;381.13;;;242.68;;
48481;SDS011;34284;48.278;16.378;2023-05-07T12:36:57;393.23;;;251.63;;
48481;SDS011;34284;48.278;16.378;2023-05-07T12:39:23;382.58;;;244.35;;
48481;SDS011;34284;48.278;16.378;2023-05-07T12:41:52;381.80;;;248.93;;
48481;SDS011;34284;48.278;16.378;2023-05-07T12:44:21;393.10;;;263.90;;
48481;SDS011;34284;48.278;16.378;2023-05-07T12:46:48;393.92;;;263.58;;
48481;SDS011;34284;48.278;16.378;2023-05-07T12:49:14;399.25;;;266.98;;
48481;SDS011;34284;48.278;16.378;2023-05-07T12:51:40;401.27;;;275.63;;
48481;SDS011;34284;48.278;16.378;2023-05-07T12:54:06;394.98;;;273.27;;
48481;SDS011;34284;48.278;16.378;2023-05-07T12:56:35;417.98;;;290.33;;
48481;SDS011;34284;48.278;16.378;2023-05-07T12:59:01;373.95;;;245.52;;
48481;SDS011;34284;48.278;16.378;2023-05-07T13:01:28;386.95;;;251.82;;
48481;SDS011;34284;48.278;16.378;2023-05-07T13:03:55;383.15;;;256.15;;
48481;SDS011;34284;48.278;16.378;2023-05-07T13:06:21;390.52;;;276.23;;
48481;SDS011;34284;48.278;16.378;2023-05-07T13:08:47;414.48;;;301.40;;
48481;SDS011;34284;48.278;16.378;2023-05-07T13:11:13;397.08;;;273.88;;
48481;SDS011;34284;48.278;16.378;2023-05-07T13:13:40;417.33;;;311.48;;
48481;SDS011;34284;48.278;16.378;2023-05-07T13:16:07;408.17;;;286.98;;
48481;SDS011;34284;48.278;16.378;2023-05-07T13:18:33;393.92;;;290.23;;
48481;SDS011;34284;48.278;16.378;2023-05-07T13:21:00;386.65;;;265.38;;
48481;SDS011;34284;48.278;16.378;2023-05-07T13:23:26;382.33;;;250.48;;
48481;SDS011;34284;48.278;16.378;2023-05-07T13:25:52;388.17;;;261.83;;
48481;SDS011;34284;48.278;16.378;2023-05-07T13:28:22;392.15;;;275.35;;
48481;SDS011;34284;48.278;16.378;2023-05-07T13:30:48;391.00;;;273.77;;
48481;SDS011;34284;48.278;16.378;2023-05-07T13:33:16;391.17;;;268.67;;
48481;SDS011;34284;48.278;16.378;2023-05-07T13:35:42;430.52;;;273.90;;
48481;SDS011;34284;48.278;16.378;2023-05-07T13:38:08;397.48;;;281.88;;
48481;SDS011;34284;48.278;16.378;2023-05-07T13:40:35;446.17;;;279.83;;
48481;SDS011;34284;48.278;16.378;2023-05-07T13:43:01;402.23;;;288.88;;
48481;SDS011;34284;48.278;16.378;2023-05-07T13:45:27;400.88;;;294.30;;
48481;SDS011;34284;48.278;16.378;2023-05-07T13:47:55;406.35;;;306.65;;
48481;SDS011;34284;48.278;16.378;2023-05-07T13:50:21;400.58;;;296.75;;
48481;SDS011;34284;48.278;16.378;2023-05-07T13:52:47;411.15;;;301.95;;
48481;SDS011;34284;48.278;16.378;2023-05-07T13:55:17;399.90;;;294.05;;
48481;SDS011;34284;48.278;16.378;2023-05-07T13:57:43;405.27;;;300.65;;
48481;SDS011;34284;48.278;16.378;2023-05-07T14:00:10;396.60;;;292.92;;